Time;durP1;ratioP1;P1;durP2;ratioP2;P2;SDS_P1;SDS_P2;PMS_P1;PMS_P2;Temp;Humidity;BMP_temperature;BMP_pressure;BME280_temperature;BME280_humidity;BME280_pressure;Samples;Min_cycle;Max_cycle;Signal;HPM_P1;HPM_P2
2023/03/26 00:01:06;;;;;;;13.52;1.90;;;7.40;99.90;;;;;;4931124;29;20044;-66
2023/03/26 00:03:33;;;;;;;11.25;1.88;;;7.30;99.90;;;;;;4930105;29;20085;-67
2023/03/26 00:06:11;;;;;;;13.00;2.30;;;7.40;99.90;;;;;;4928853;29;20071;-67
2023/03/26 00:08:38;;;;;;;14.85;2.00;;;7.40;99.90;;;;;;4930002;29;20044;-67
2023/03/26 00:11:06;;;;;;;11.57;1.83;;;7.30;99.90;;;;;;4929458;29;20055;-67
2023/03/26 00:13:32;;;;;;;12.40;1.48;;;7.30;99.90;;;;;;4930885;29;20043;-67
2023/03/26 00:15:58;;;;;;;11.43;2.42;;;7.30;99.90;;;;;;4931444;29;20051;-66
2023/03/26 00:18:29;;;;;;;9.00;1.52;;;7.30;99.90;;;;;;4932199;29;20036;-67
2023/03/26 00:20:56;;;;;;;16.15;2.20;;;7.30;99.90;;;;;;4929054;29;20039;-67
2023/03/26 00:23:22;;;;;;;8.85;1.65;;;7.20;99.90;;;;;;4928378;29;20083;-67
2023/03/26 00:25:49;;;;;;;12.13;1.85;;;7.20;99.90;;;;;;4931436;29;20068;-67
2023/03/26 00:28:16;;;;;;;12.40;2.22;;;7.10;99.90;;;;;;4930641;29;20683;-67
2023/03/26 00:30:42;;;;;;;12.85;1.80;;;7.20;99.90;;;;;;4929703;29;20048;-67
2023/03/26 00:33:10;;;;;;;13.00;1.77;;;7.10;99.90;;;;;;4921674;29;20123;-67
2023/03/26 00:35:37;;;;;;;11.02;1.58;;;7.10;99.90;;;;;;4929815;29;20115;-67
2023/03/26 00:38:03;;;;;;;20.77;2.63;;;7.00;99.90;;;;;;4930936;29;20043;-66
2023/03/26 00:40:30;;;;;;;15.05;2.10;;;7.00;99.90;;;;;;4929714;29;20039;-67
2023/03/26 00:42:56;;;;;;;14.32;2.17;;;7.00;99.90;;;;;;4927467;29;20051;-67
2023/03/26 00:45:22;;;;;;;12.00;2.10;;;6.90;99.90;;;;;;4929922;29;20059;-67
2023/03/26 00:47:47;;;;;;;10.00;1.70;;;6.90;99.90;;;;;;4930636;29;20472;-66
2023/03/26 00:50:16;;;;;;;9.98;1.60;;;6.80;99.90;;;;;;4929087;29;20051;-66
2023/03/26 00:52:45;;;;;;;11.60;1.35;;;6.80;99.90;;;;;;4926125;29;20130;-67
2023/03/26 00:55:11;;;;;;;12.52;1.95;;;6.80;99.90;;;;;;4915199;29;20047;-67
2023/03/26 00:57:39;;;;;;;11.65;1.83;;;6.80;99.90;;;;;;4929974;29;20128;-67
2023/03/26 01:00:15;;;;;;;13.23;1.85;;;6.80;99.90;;;;;;4933726;29;20677;-67
2023/03/26 01:02:43;;;;;;;13.65;3.00;;;6.80;99.90;;;;;;4933624;29;20044;-68
2023/03/26 01:05:34;;;;;;;17.17;2.40;;;6.80;99.90;;;;;;4936215;29;20123;-68
2023/03/26 01:08:32;;;;;;;10.85;1.80;;;6.80;99.90;;;;;;4929669;29;20102;-68
2023/03/26 01:11:03;;;;;;;9.23;1.48;;;6.70;99.90;;;;;;4923009;29;20440;-68
2023/03/26 01:13:45;;;;;;;12.15;2.05;;;6.70;99.90;;;;;;4929618;29;20051;-69
2023/03/26 01:16:35;;;;;;;9.68;1.75;;;6.60;99.90;;;;;;4934068;29;20051;-68
2023/03/26 01:19:05;;;;;;;11.50;2.13;;;6.50;99.90;;;;;;4931394;29;20082;-69
2023/03/26 01:21:33;;;;;;;10.38;1.88;;;6.50;99.90;;;;;;4935846;29;20118;-68
2023/03/26 01:24:04;;;;;;;13.73;1.88;;;6.40;99.90;;;;;;4930468;29;20082;-69
2023/03/26 01:26:33;;;;;;;8.15;2.15;;;6.40;99.90;;;;;;4936214;29;20483;-68
2023/03/26 01:29:02;;;;;;;12.50;2.00;;;6.30;99.90;;;;;;4931847;29;20107;-69
2023/03/26 01:31:41;;;;;;;15.52;2.75;;;6.30;99.90;;;;;;4931667;29;20059;-69
2023/03/26 01:34:32;;;;;;;6.88;2.08;;;6.30;99.90;;;;;;4927829;29;20035;-69
2023/03/26 01:37:24;;;;;;;16.83;2.35;;;6.20;99.90;;;;;;4927233;29;20130;-68
2023/03/26 01:39:57;;;;;;;17.85;2.85;;;6.20;99.90;;;;;;4934910;29;20159;-68
2023/03/26 01:42:41;;;;;;;11.05;2.50;;;6.20;99.90;;;;;;4933518;29;20078;-68
2023/03/26 01:45:14;;;;;;;13.07;1.75;;;6.10;99.90;;;;;;4935241;29;20106;-69
2023/03/26 01:47:42;;;;;;;12.68;2.15;;;6.10;99.90;;;;;;4930940;29;20388;-68
2023/03/26 01:50:08;;;;;;;9.90;2.30;;;6.10;99.90;;;;;;4932709;29;20556;-68
2023/03/26 01:52:34;;;;;;;9.77;2.10;;;6.10;99.90;;;;;;4934387;29;20457;-68
2023/03/26 01:55:01;;;;;;;14.32;2.22;;;6.00;99.90;;;;;;4930773;29;20047;-68
2023/03/26 01:57:33;;;;;;;15.10;2.05;;;6.00;99.90;;;;;;4935565;29;20047;-68
2023/03/26 02:00:10;;;;;;;10.15;2.10;;;6.00;99.90;;;;;;4934140;29;20191;-68
2023/03/26 02:03:02;;;;;;;12.18;1.83;;;6.00;99.90;;;;;;4932875;29;20084;-68
2023/03/26 02:05:37;;;;;;;9.45;1.60;;;6.00;99.90;;;;;;4931671;29;20123;-68
2023/03/26 02:08:04;;;;;;;13.45;2.67;;;6.10;99.90;;;;;;4907620;29;20421;-68
2023/03/26 02:10:35;;;;;;;14.60;1.95;;;6.10;99.90;;;;;;4932787;29;20090;-68
2023/03/26 02:13:01;;;;;;;13.05;2.78;;;6.00;99.90;;;;;;4933586;29;20039;-68
2023/03/26 02:15:27;;;;;;;14.43;2.00;;;6.00;99.90;;;;;;4933043;29;20039;-68
2023/03/26 02:17:53;;;;;;;10.05;1.92;;;6.00;99.90;;;;;;4929982;29;20047;-68
2023/03/26 02:20:20;;;;;;;10.00;1.88;;;6.00;99.90;;;;;;4928736;29;20052;-68
2023/03/26 02:22:47;;;;;;;7.43;1.80;;;6.00;99.90;;;;;;4931819;29;20134;-68
2023/03/26 02:25:15;;;;;;;15.15;1.80;;;6.00;99.90;;;;;;4931069;29;20356;-68
2023/03/26 02:27:42;;;;;;;10.27;1.80;;;5.90;99.90;;;;;;4935923;29;20047;-68
2023/03/26 02:30:14;;;;;;;9.65;1.67;;;5.90;99.90;;;;;;4929146;29;20050;-68
2023/03/26 02:32:39;;;;;;;13.02;2.08;;;5.90;99.90;;;;;;4933372;29;20054;-68
2023/03/26 02:35:06;;;;;;;12.30;1.73;;;5.80;99.90;;;;;;4929404;29;20056;-68
2023/03/26 02:37:35;;;;;;;12.20;1.75;;;5.80;99.90;;;;;;4933694;29;20468;-68
2023/03/26 02:40:01;;;;;;;13.43;2.17;;;5.70;99.90;;;;;;4924116;29;20071;-68
2023/03/26 02:42:27;;;;;;;14.25;2.40;;;5.70;99.90;;;;;;4935442;29;20047;-68
2023/03/26 02:44:52;;;;;;;9.57;1.63;;;5.70;99.90;;;;;;4933384;29;20130;-68
2023/03/26 02:47:18;;;;;;;7.82;1.77;;;5.70;99.90;;;;;;4931206;29;20130;-68
2023/03/26 02:49:44;;;;;;;7.55;1.85;;;5.80;99.90;;;;;;4928547;29;20430;-68
2023/03/26 02:52:10;;;;;;;9.27;2.20;;;5.70;99.90;;;;;;4931819;29;20040;-68
2023/03/26 02:54:36;;;;;;;11.02;2.15;;;5.70;99.90;;;;;;4930356;29;20042;-68
2023/03/26 02:57:01;;;;;;;10.05;1.88;;;5.70;99.90;;;;;;4934023;29;20115;-68
2023/03/26 02:59:27;;;;;;;11.88;2.80;;;5.70;99.90;;;;;;4930723;29;20083;-68
2023/03/26 03:01:53;;;;;;;9.63;1.90;;;5.70;99.90;;;;;;4929775;29;20133;-68
2023/03/26 03:04:19;;;;;;;8.73;1.77;;;5.70;99.90;;;;;;4928279;29;20040;-68
2023/03/26 03:06:44;;;;;;;13.32;2.33;;;5.60;99.90;;;;;;4931229;29;20047;-68
2023/03/26 03:09:11;;;;;;;8.80;1.85;;;5.60;99.90;;;;;;4933249;29;20680;-68
2023/03/26 03:11:38;;;;;;;11.70;2.58;;;5.60;99.90;;;;;;4931670;29;20058;-68
2023/03/26 03:14:04;;;;;;;13.65;2.28;;;5.50;99.90;;;;;;4930800;29;20059;-68
2023/03/26 03:16:30;;;;;;;12.27;2.67;;;5.50;99.90;;;;;;4927904;29;20494;-68
2023/03/26 03:18:56;;;;;;;12.13;2.10;;;5.50;99.90;;;;;;4928460;29;20088;-68
2023/03/26 03:21:27;;;;;;;11.35;2.10;;;5.50;99.90;;;;;;4933523;29;20062;-68
2023/03/26 03:23:54;;;;;;;8.10;1.98;;;5.40;99.90;;;;;;4927821;29;20548;-68
2023/03/26 03:26:22;;;;;;;7.70;2.00;;;5.40;99.90;;;;;;4932350;29;20452;-68
2023/03/26 03:28:48;;;;;;;8.52;2.38;;;5.40;99.90;;;;;;4929405;29;20039;-68
2023/03/26 03:31:15;;;;;;;10.65;2.55;;;5.30;99.90;;;;;;4928249;29;20368;-68
2023/03/26 03:33:41;;;;;;;15.35;2.28;;;5.30;99.90;;;;;;4927971;29;20090;-67
2023/03/26 03:36:12;;;;;;;10.40;1.90;;;5.20;99.90;;;;;;4927469;29;20052;-67
2023/03/26 03:38:39;;;;;;;6.82;1.67;;;5.20;99.90;;;;;;4931593;29;20031;-67
2023/03/26 03:41:06;;;;;;;10.50;1.95;;;5.10;99.90;;;;;;4929728;29;20062;-67
2023/03/26 03:43:32;;;;;;;8.18;1.60;;;5.10;99.90;;;;;;4928875;29;20116;-67
2023/03/26 03:45:59;;;;;;;5.80;1.63;;;5.00;99.90;;;;;;4926003;29;20048;-68
2023/03/26 03:48:25;;;;;;;7.30;1.88;;;4.90;99.90;;;;;;4928625;29;20051;-67
2023/03/26 03:50:52;;;;;;;11.82;2.67;;;4.90;99.90;;;;;;4930929;29;20043;-67
2023/03/26 03:53:18;;;;;;;16.88;2.58;;;4.80;99.90;;;;;;4927473;29;20051;-67
2023/03/26 03:55:51;;;;;;;12.88;2.30;;;4.80;99.90;;;;;;4929970;29;20574;-67
2023/03/26 03:58:23;;;;;;;10.90;2.40;;;4.80;99.90;;;;;;4931448;29;20047;-67
2023/03/26 04:00:51;;;;;;;7.32;2.40;;;4.80;99.90;;;;;;4926983;29;20131;-67
2023/03/26 04:03:18;;;;;;;10.85;2.17;;;4.80;99.90;;;;;;4904285;29;20143;-67
2023/03/26 04:05:48;;;;;;;9.32;2.38;;;4.70;99.90;;;;;;4927339;29;20107;-67
2023/03/26 04:08:17;;;;;;;10.85;1.98;;;4.70;99.90;;;;;;4932462;29;20051;-67
2023/03/26 04:10:43;;;;;;;8.57;2.03;;;4.70;99.90;;;;;;4931764;29;20074;-68
2023/03/26 04:13:13;;;;;;;11.88;1.83;;;4.70;99.90;;;;;;4929833;29;20047;-67
2023/03/26 04:15:40;;;;;;;6.93;2.15;;;4.70;99.90;;;;;;4927570;29;20046;-67
2023/03/26 04:18:09;;;;;;;7.55;1.83;;;4.70;99.90;;;;;;4928612;29;20048;-67
2023/03/26 04:20:45;;;;;;;13.48;2.28;;;4.80;99.90;;;;;;4931624;29;20075;-67
2023/03/26 04:23:15;;;;;;;6.38;1.70;;;4.80;99.90;;;;;;4928197;29;20563;-67
2023/03/26 04:25:44;;;;;;;13.50;2.70;;;4.80;99.90;;;;;;4930233;29;20048;-67
2023/03/26 04:28:14;;;;;;;9.70;2.28;;;4.80;99.90;;;;;;4926682;29;20052;-67
2023/03/26 04:30:41;;;;;;;11.50;2.47;;;4.80;99.90;;;;;;4932442;29;20050;-67
2023/03/26 04:33:14;;;;;;;15.15;2.60;;;4.80;99.90;;;;;;4919702;29;20054;-67
2023/03/26 04:35:43;;;;;;;17.15;2.60;;;4.90;99.90;;;;;;4926923;29;20036;-68
2023/03/26 04:38:10;;;;;;;8.95;2.45;;;4.80;99.90;;;;;;4932146;29;20111;-67
2023/03/26 04:40:37;;;;;;;10.85;2.53;;;4.90;99.90;;;;;;4929401;29;20184;-67
2023/03/26 04:43:03;;;;;;;11.52;2.50;;;4.90;99.90;;;;;;4928556;29;20052;-67
2023/03/26 04:45:30;;;;;;;12.32;2.47;;;4.90;99.90;;;;;;4929112;29;20110;-67
2023/03/26 04:47:59;;;;;;;12.98;2.55;;;5.00;99.90;;;;;;4929971;29;20380;-67
2023/03/26 04:50:25;;;;;;;17.08;2.80;;;5.00;99.90;;;;;;4926233;29;20035;-67
2023/03/26 04:52:53;;;;;;;13.45;2.92;;;5.10;99.90;;;;;;4931130;29;20044;-67
2023/03/26 04:55:30;;;;;;;16.58;3.28;;;5.10;99.90;;;;;;4929914;29;20463;-67
2023/03/26 04:57:58;;;;;;;9.82;2.58;;;5.10;99.90;;;;;;4929178;29;20091;-67
2023/03/26 05:00:25;;;;;;;15.82;3.03;;;5.20;99.90;;;;;;4927493;29;20142;-67
2023/03/26 05:02:54;;;;;;;10.30;2.50;;;5.20;99.90;;;;;;4930934;29;20059;-67
2023/03/26 05:05:20;;;;;;;8.98;3.20;;;5.30;99.90;;;;;;4930123;29;20102;-67
2023/03/26 05:07:46;;;;;;;12.25;2.30;;;5.30;99.90;;;;;;4932052;29;20488;-67
2023/03/26 05:10:14;;;;;;;9.20;2.33;;;5.30;99.90;;;;;;4929585;29;20126;-68
2023/03/26 05:12:40;;;;;;;11.45;2.58;;;5.30;99.90;;;;;;4930664;29;20040;-67
2023/03/26 05:15:07;;;;;;;14.50;2.58;;;5.40;99.90;;;;;;4929249;29;20099;-67
2023/03/26 05:17:33;;;;;;;15.45;2.80;;;5.40;99.90;;;;;;4930340;29;20197;-67
2023/03/26 05:20:00;;;;;;;12.45;3.10;;;5.40;99.90;;;;;;4927103;29;20040;-67
2023/03/26 05:22:26;;;;;;;13.80;2.72;;;5.60;99.90;;;;;;4929073;29;20127;-67
2023/03/26 05:24:51;;;;;;;16.80;2.92;;;5.50;99.90;;;;;;4930917;29;20131;-67
2023/03/26 05:27:19;;;;;;;14.40;2.53;;;5.60;99.90;;;;;;4929270;29;20404;-67
2023/03/26 05:29:45;;;;;;;10.27;3.03;;;5.60;99.90;;;;;;4929412;29;20059;-67
2023/03/26 05:32:11;;;;;;;10.00;3.10;;;5.60;99.90;;;;;;4932462;29;20131;-67
2023/03/26 05:34:39;;;;;;;19.63;3.35;;;5.60;99.90;;;;;;4926706;29;20358;-67
2023/03/26 05:37:05;;;;;;;20.63;3.50;;;5.70;99.90;;;;;;4929879;29;20468;-67
2023/03/26 05:39:32;;;;;;;13.10;3.20;;;5.70;99.90;;;;;;4931280;29;20137;-67
2023/03/26 05:41:58;;;;;;;9.75;2.97;;;5.70;99.90;;;;;;4929278;29;20094;-67
2023/03/26 05:44:23;;;;;;;16.60;3.75;;;5.80;99.90;;;;;;4929609;29;20075;-67
2023/03/26 05:46:50;;;;;;;15.32;3.10;;;5.80;99.90;;;;;;4932393;29;20031;-67
2023/03/26 05:49:15;;;;;;;16.13;3.63;;;5.80;99.90;;;;;;4929667;29;20476;-67
2023/03/26 05:51:41;;;;;;;11.82;3.97;;;5.80;99.90;;;;;;4926501;29;20036;-67
2023/03/26 05:54:07;;;;;;;15.32;3.20;;;5.80;99.90;;;;;;4931051;29;20051;-67
2023/03/26 05:56:32;;;;;;;11.63;3.13;;;5.90;99.90;;;;;;4932043;29;20039;-67
2023/03/26 05:58:58;;;;;;;18.02;3.60;;;5.90;99.90;;;;;;4932381;29;20242;-67
2023/03/26 06:01:24;;;;;;;15.77;3.85;;;5.90;99.90;;;;;;4928459;29;20044;-67
2023/03/26 06:03:50;;;;;;;13.93;3.05;;;5.90;99.90;;;;;;4931421;29;20036;-67
2023/03/26 06:06:19;;;;;;;12.82;3.58;;;6.00;99.90;;;;;;4933186;29;20404;-67
2023/03/26 06:08:49;;;;;;;19.55;3.47;;;6.00;99.90;;;;;;4933403;29;20072;-67
2023/03/26 06:11:19;;;;;;;13.07;3.75;;;6.10;99.90;;;;;;4934571;29;20039;-67
2023/03/26 06:13:46;;;;;;;12.52;3.47;;;6.10;99.90;;;;;;4933071;29;20123;-67
2023/03/26 06:16:13;;;;;;;15.15;3.83;;;6.10;99.90;;;;;;4933379;29;20036;-67
2023/03/26 06:18:39;;;;;;;13.30;3.10;;;6.10;99.90;;;;;;4911671;29;20039;-67
2023/03/26 06:21:06;;;;;;;11.23;3.25;;;6.20;99.90;;;;;;4931730;29;20095;-67
2023/03/26 06:23:31;;;;;;;13.40;3.75;;;6.20;99.90;;;;;;4932333;29;20047;-67
2023/03/26 06:25:57;;;;;;;12.32;3.55;;;6.20;99.90;;;;;;4933428;29;20080;-67
2023/03/26 06:28:24;;;;;;;18.63;3.60;;;6.30;99.90;;;;;;4931416;29;20102;-67
2023/03/26 06:30:50;;;;;;;12.73;4.68;;;6.40;99.90;;;;;;4929871;29;20040;-67
2023/03/26 06:33:16;;;;;;;15.07;4.63;;;6.40;99.90;;;;;;4932892;29;20063;-67
2023/03/26 06:35:44;;;;;;;16.08;5.18;;;6.50;99.90;;;;;;4932418;29;20130;-67
2023/03/26 06:38:10;;;;;;;14.73;5.15;;;6.50;99.90;;;;;;4929979;29;20821;-67
2023/03/26 06:40:36;;;;;;;21.05;5.63;;;6.60;99.90;;;;;;4932170;29;20051;-67
2023/03/26 06:43:02;;;;;;;19.45;5.65;;;6.60;99.90;;;;;;4932370;29;20039;-67
2023/03/26 06:45:29;;;;;;;20.50;5.00;;;6.70;99.90;;;;;;4931969;29;20043;-67
2023/03/26 06:47:54;;;;;;;15.65;4.50;;;6.70;99.90;;;;;;4932472;29;20058;-67
2023/03/26 06:50:20;;;;;;;18.33;4.47;;;6.90;99.90;;;;;;4933111;29;20047;-67
2023/03/26 06:52:46;;;;;;;16.88;4.18;;;7.00;99.90;;;;;;4931017;29;20472;-67
2023/03/26 06:55:13;;;;;;;17.70;4.45;;;7.10;99.90;;;;;;4933093;29;20055;-67
2023/03/26 06:57:39;;;;;;;18.05;4.13;;;7.10;99.90;;;;;;4927999;29;20213;-67
2023/03/26 07:00:05;;;;;;;18.58;3.90;;;7.10;99.90;;;;;;4928777;29;20087;-67
2023/03/26 07:02:31;;;;;;;24.67;4.00;;;7.10;99.90;;;;;;4934702;29;20094;-67
2023/03/26 07:04:57;;;;;;;20.45;3.70;;;7.10;99.90;;;;;;4925973;29;20044;-67
2023/03/26 07:07:23;;;;;;;19.48;3.38;;;7.10;99.90;;;;;;4930648;29;20047;-67
2023/03/26 07:09:50;;;;;;;17.83;3.58;;;7.10;99.90;;;;;;4912773;29;20062;-68
2023/03/26 07:12:16;;;;;;;17.20;3.15;;;7.10;99.90;;;;;;4931054;29;20043;-67
2023/03/26 07:14:42;;;;;;;15.02;2.97;;;7.10;99.90;;;;;;4932991;29;20406;-67
2023/03/26 07:17:07;;;;;;;15.93;3.78;;;7.10;99.90;;;;;;4929059;29;20075;-67
2023/03/26 07:19:33;;;;;;;16.52;3.15;;;7.20;99.90;;;;;;4928699;29;20297;-67
2023/03/26 07:21:59;;;;;;;16.70;3.60;;;7.10;99.90;;;;;;4931561;29;20098;-67
2023/03/26 07:24:25;;;;;;;14.15;2.80;;;7.20;99.90;;;;;;4928353;29;20058;-67
2023/03/26 07:27:00;;;;;;;16.58;3.10;;;7.30;99.90;;;;;;4931626;29;20400;-67
2023/03/26 07:29:31;;;;;;;14.13;2.53;;;7.30;99.90;;;;;;4931957;29;21213;-67
2023/03/26 07:32:27;;;;;;;19.05;3.00;;;7.30;99.90;;;;;;4926472;29;20048;-67
2023/03/26 07:34:52;;;;;;;;;;;7.40;99.90;;;;;;4925843;29;20370;-67
2023/03/26 07:37:44;;;;;;;14.68;2.70;;;7.30;99.90;;;;;;4929423;29;19965;-67
2023/03/26 07:40:43;;;;;;;18.25;2.95;;;7.40;99.90;;;;;;4925080;29;20441;-67
2023/03/26 07:43:34;;;;;;;20.73;3.63;;;7.50;99.90;;;;;;4926326;29;20110;-67
2023/03/26 07:46:00;;;;;;;19.00;2.95;;;7.70;99.90;;;;;;4925469;29;20527;-67
2023/03/26 07:48:36;;;;;;;19.77;3.42;;;7.60;99.90;;;;;;4929840;29;20071;-67
2023/03/26 07:51:02;;;;;;;17.98;2.67;;;7.70;99.90;;;;;;4917509;29;20062;-67
2023/03/26 07:53:28;;;;;;;29.25;8.77;;;7.80;99.90;;;;;;4927806;29;20043;-67
2023/03/26 07:56:29;;;;;;;17.20;3.17;;;7.90;99.90;;;;;;4927693;29;20090;-67
2023/03/26 07:59:29;;;;;;;14.02;2.65;;;7.90;99.90;;;;;;4927261;29;20059;-67
2023/03/26 08:02:13;;;;;;;19.50;2.92;;;7.80;99.90;;;;;;4922665;29;20048;-67
2023/03/26 08:05:03;;;;;;;16.57;2.80;;;7.80;99.90;;;;;;4930652;29;20399;-67
2023/03/26 08:08:19;;;;;;;16.75;2.60;;;7.80;99.90;;;;;;4931149;29;20053;-67
2023/03/26 08:11:13;;;;;;;20.40;3.95;;;7.80;99.90;;;;;;4914025;29;20074;-68
2023/03/26 08:13:52;;;;;;;16.25;2.35;;;7.80;99.90;;;;;;4926432;29;20043;-68
2023/03/26 08:16:35;;;;;;;16.85;2.25;;;7.80;99.90;;;;;;4926734;29;20047;-68
2023/03/26 08:19:01;;;;;;;15.82;2.47;;;7.80;99.90;;;;;;4923734;29;20040;-68
2023/03/26 08:21:33;;;;;;;11.25;2.90;;;7.80;99.90;;;;;;4925691;29;20099;-68
2023/03/26 08:24:21;;;;;;;17.23;3.42;;;7.80;99.90;;;;;;4928365;29;20039;-68
2023/03/26 08:27:01;;;;;;;17.10;3.47;;;7.80;99.90;;;;;;4928299;29;20583;-68
2023/03/26 08:30:08;;;;;;;14.27;2.85;;;7.80;99.90;;;;;;4932511;29;20043;-68
2023/03/26 08:32:34;;;;;;;19.30;2.83;;;7.90;99.90;;;;;;4928414;29;20114;-68
2023/03/26 08:35:03;;;;;;;12.70;2.35;;;7.90;99.90;;;;;;4930975;29;20480;-68
2023/03/26 08:37:29;;;;;;;21.95;2.97;;;8.00;99.90;;;;;;4930207;29;20040;-68
2023/03/26 08:39:55;;;;;;;19.52;2.70;;;8.00;99.90;;;;;;4928992;29;20036;-70
2023/03/26 08:42:57;;;;;;;17.60;2.67;;;8.10;99.90;;;;;;4928848;29;20723;-67
2023/03/26 08:45:50;;;;;;;14.68;2.70;;;8.20;99.90;;;;;;4922809;29;20063;-68
2023/03/26 08:48:49;;;;;;;20.73;2.55;;;8.30;99.90;;;;;;4929469;29;20063;-68
2023/03/26 08:51:55;;;;;;;15.70;2.58;;;8.30;99.90;;;;;;4926660;29;20106;-68
2023/03/26 08:54:40;;;;;;;14.00;2.17;;;8.40;99.90;;;;;;4930424;29;20091;-68
2023/03/26 08:57:17;;;;;;;22.52;3.20;;;8.40;99.90;;;;;;4944997;29;20047;-68
2023/03/26 09:00:15;;;;;;;15.00;2.40;;;8.40;99.90;;;;;;4927788;29;20070;-68
2023/03/26 09:02:50;;;;;;;14.95;3.15;;;8.40;99.90;;;;;;4923764;29;20040;-69
2023/03/26 09:05:36;;;;;;;16.88;2.55;;;8.30;99.90;;;;;;4929064;29;20116;-68
2023/03/26 09:08:26;;;;;;;18.70;2.95;;;8.30;99.90;;;;;;4922510;29;20098;-68
2023/03/26 09:11:15;;;;;;;17.63;3.25;;;8.40;99.90;;;;;;4929537;29;20055;-68
2023/03/26 09:13:47;;;;;;;17.50;3.08;;;8.50;99.90;;;;;;4931095;29;20063;-68
2023/03/26 09:16:37;;;;;;;14.40;2.25;;;8.40;99.90;;;;;;4930197;29;20035;-68
2023/03/26 09:19:21;;;;;;;17.45;3.00;;;8.50;99.90;;;;;;4929342;29;20512;-69
2023/03/26 09:22:09;;;;;;;16.17;3.03;;;8.40;99.90;;;;;;4932959;29;20201;-68
2023/03/26 09:25:12;;;;;;;12.68;2.17;;;8.40;99.90;;;;;;4933468;29;20051;-68
2023/03/26 09:28:29;;;;;;;16.45;2.80;;;8.40;99.90;;;;;;4930909;29;20040;-68
2023/03/26 09:31:07;;;;;;;15.85;2.58;;;8.30;99.90;;;;;;4920944;29;20452;-68
2023/03/26 09:33:55;;;;;;;18.90;2.95;;;8.40;99.90;;;;;;4928696;29;20323;-68
2023/03/26 09:36:51;;;;;;;14.20;2.08;;;8.50;99.90;;;;;;4930890;29;20047;-68
2023/03/26 09:39:42;;;;;;;15.93;2.55;;;8.60;99.90;;;;;;4929847;29;20487;-68
2023/03/26 09:42:08;;;;;;;17.33;3.42;;;8.70;99.90;;;;;;4934647;29;20187;-68
2023/03/26 09:45:09;;;;;;;17.73;3.10;;;8.70;99.90;;;;;;4931799;29;20146;-68
2023/03/26 09:48:07;;;;;;;14.57;2.88;;;8.70;99.90;;;;;;4922463;29;20044;-68
2023/03/26 09:50:33;;;;;;;12.07;2.13;;;8.70;99.90;;;;;;4933685;29;20188;-68
2023/03/26 09:53:08;;;;;;;11.70;1.77;;;8.80;99.90;;;;;;4932860;29;20044;-68
2023/03/26 09:56:03;;;;;;;12.13;2.10;;;8.70;99.90;;;;;;4932235;29;20483;-68
2023/03/26 09:58:57;;;;;;;13.07;1.77;;;8.70;99.90;;;;;;4928658;29;20048;-68
2023/03/26 10:01:51;;;;;;;18.00;2.60;;;8.80;99.90;;;;;;4930296;29;20051;-67
2023/03/26 10:04:36;;;;;;;16.02;2.92;;;9.00;99.90;;;;;;4928602;29;20058;-68
2023/03/26 10:07:02;;;;;;;16.23;2.55;;;9.10;99.90;;;;;;4928957;29;20135;-68
2023/03/26 10:09:50;;;;;;;13.50;2.33;;;9.10;99.90;;;;;;4929213;29;20134;-68
2023/03/26 10:12:40;;;;;;;13.55;2.35;;;9.20;99.90;;;;;;4932489;29;20372;-68
2023/03/26 10:15:34;;;;;;;12.60;1.98;;;9.30;99.90;;;;;;4933049;29;20039;-68
2023/03/26 10:18:42;;;;;;;13.10;2.70;;;9.30;99.90;;;;;;4933276;29;20050;-68
2023/03/26 10:21:20;;;;;;;14.07;1.95;;;9.40;99.90;;;;;;4928849;29;20415;-67
2023/03/26 10:23:56;;;;;;;16.00;2.30;;;9.40;99.90;;;;;;4931777;29;20043;-67
2023/03/26 10:26:57;;;;;;;13.07;2.40;;;9.20;99.90;;;;;;4931407;29;20055;-68
2023/03/26 10:29:55;;;;;;;11.15;1.90;;;9.20;99.90;;;;;;4927743;29;20048;-68
2023/03/26 10:33:01;;;;;;;8.48;1.67;;;9.30;99.90;;;;;;4933947;29;20066;-68
2023/03/26 10:35:55;;;;;;;9.50;1.52;;;9.30;99.90;;;;;;4934003;29;20070;-67
2023/03/26 10:38:53;;;;;;;11.52;1.65;;;9.20;99.90;;;;;;4932397;29;20043;-67
2023/03/26 10:41:40;;;;;;;12.65;1.95;;;9.20;99.90;;;;;;4933208;29;20424;-67
2023/03/26 10:44:25;;;;;;;13.23;2.38;;;9.10;99.90;;;;;;4929823;29;20067;-67
2023/03/26 10:47:18;;;;;;;8.80;1.88;;;9.10;99.90;;;;;;4932629;29;20047;-67
2023/03/26 10:50:03;;;;;;;12.65;2.38;;;9.30;99.90;;;;;;4929980;29;20556;-67
2023/03/26 10:52:58;;;;;;;13.50;2.20;;;9.30;99.90;;;;;;4929747;29;20575;-67
2023/03/26 10:55:35;;;;;;;11.82;1.85;;;9.30;99.90;;;;;;4926768;29;20060;-67
2023/03/26 10:58:31;;;;;;;10.02;1.75;;;9.30;99.90;;;;;;4928922;29;20118;-68
2023/03/26 11:01:11;;;;;;;29.65;20.08;;;9.40;99.90;;;;;;4931953;29;20055;-68
2023/03/26 11:03:50;;;;;;;12.38;2.55;;;9.40;99.90;;;;;;4925999;29;20463;-67
2023/03/26 11:06:32;;;;;;;9.70;1.83;;;9.50;99.90;;;;;;4933107;29;20040;-67
2023/03/26 11:09:11;;;;;;;11.57;1.85;;;9.50;99.90;;;;;;4929702;29;20132;-68
2023/03/26 11:11:55;;;;;;;13.10;2.40;;;9.60;99.90;;;;;;4930073;29;20039;-68
2023/03/26 11:14:46;;;;;;;11.77;2.03;;;9.70;99.90;;;;;;4931677;29;20094;-67
2023/03/26 11:17:27;;;;;;;8.23;1.85;;;9.60;99.90;;;;;;4943427;29;20423;-67
2023/03/26 11:20:14;;;;;;;13.82;2.40;;;9.60;99.90;;;;;;4931055;29;20040;-67
2023/03/26 11:23:08;;;;;;;10.88;1.13;;;9.50;99.90;;;;;;4929302;29;20063;-68
2023/03/26 11:25:39;;;;;;;7.00;1.58;;;9.50;99.90;;;;;;4931582;29;20078;-68
2023/03/26 11:28:30;;;;;;;12.27;1.80;;;9.50;99.90;;;;;;4930257;29;20554;-68
2023/03/26 11:31:27;;;;;;;13.57;2.30;;;9.40;99.90;;;;;;4930888;29;20048;-68
2023/03/26 11:33:57;;;;;;;11.73;2.13;;;9.40;99.90;;;;;;4930518;29;20392;-68
2023/03/26 11:36:29;;;;;;;7.80;1.52;;;9.30;99.90;;;;;;4933795;29;20102;-68
2023/03/26 11:38:58;;;;;;;14.00;1.77;;;9.30;99.90;;;;;;4931010;29;20058;-68
2023/03/26 11:41:27;;;;;;;12.10;2.30;;;9.30;99.90;;;;;;4935283;29;20474;-68
2023/03/26 11:44:02;;;;;;;11.45;1.83;;;9.20;99.90;;;;;;4933114;29;20047;-68
2023/03/26 11:46:30;;;;;;;7.70;1.52;;;9.20;99.90;;;;;;4922582;29;20185;-68
2023/03/26 11:49:02;;;;;;;13.70;2.63;;;9.30;99.90;;;;;;4927040;29;20079;-68
2023/03/26 11:51:35;;;;;;;15.25;2.30;;;9.30;99.90;;;;;;4926522;29;20403;-68
2023/03/26 11:54:03;;;;;;;14.03;2.33;;;9.30;99.90;;;;;;4930650;29;20114;-68
2023/03/26 11:56:53;;;;;;;14.55;1.95;;;9.30;99.90;;;;;;4934714;29;20040;-68
2023/03/26 11:59:46;;;;;;;9.48;1.98;;;9.30;99.90;;;;;;4931904;29;20055;-68
2023/03/26 12:02:12;;;;;;;9.57;2.00;;;9.20;99.90;;;;;;4912305;29;20043;-68
2023/03/26 12:04:44;;;;;;;11.27;1.95;;;9.10;99.90;;;;;;4927796;29;20032;-68
2023/03/26 12:07:30;;;;;;;11.05;1.80;;;9.00;99.90;;;;;;4934571;29;20516;-68
2023/03/26 12:10:02;;;;;;;13.90;1.83;;;9.10;99.90;;;;;;4929550;29;20665;-68
2023/03/26 12:12:37;;;;;;;14.10;2.40;;;9.10;99.90;;;;;;4930569;29;20076;-68
2023/03/26 12:15:03;;;;;;;35.90;20.38;;;9.10;99.90;;;;;;4932702;29;20094;-67
2023/03/26 12:17:35;;;;;;;13.90;3.13;;;8.90;99.90;;;;;;4932321;29;20043;-68
2023/03/26 12:20:22;;;;;;;15.95;2.95;;;8.80;99.90;;;;;;4930402;29;20039;-68
2023/03/26 12:22:48;;;;;;;15.10;2.50;;;8.70;99.90;;;;;;4930047;29;20091;-68
2023/03/26 12:25:19;;;;;;;12.50;2.80;;;8.70;99.90;;;;;;4929052;29;20050;-67
2023/03/26 12:27:48;;;;;;;11.52;2.08;;;8.80;99.90;;;;;;4924107;29;20035;-67
2023/03/26 12:30:24;;;;;;;18.38;2.20;;;8.80;99.90;;;;;;4928740;29;20047;-68
2023/03/26 12:32:52;;;;;;;13.10;1.88;;;8.70;99.90;;;;;;4929710;29;20044;-67
2023/03/26 12:35:26;;;;;;;11.73;2.53;;;8.60;99.90;;;;;;4928518;29;20067;-68
2023/03/26 12:37:53;;;;;;;10.93;1.98;;;8.60;99.90;;;;;;4932986;29;20407;-67
2023/03/26 12:40:33;;;;;;;13.60;2.30;;;8.60;99.90;;;;;;4927387;29;20040;-68
2023/03/26 12:43:22;;;;;;;10.38;1.58;;;8.60;99.90;;;;;;4929678;29;20066;-68
2023/03/26 12:45:52;;;;;;;14.65;2.35;;;8.60;99.90;;;;;;4930802;29;20067;-68
2023/03/26 12:48:18;;;;;;;13.40;2.22;;;8.60;99.90;;;;;;4930821;29;20487;-67
2023/03/26 12:51:07;;;;;;;12.95;2.20;;;8.60;99.90;;;;;;4929758;29;20055;-67
2023/03/26 12:53:43;;;;;;;10.57;2.05;;;8.50;99.90;;;;;;4932046;29;20044;-68
2023/03/26 12:56:18;;;;;;;13.48;1.92;;;8.60;99.90;;;;;;4926415;29;20115;-67
2023/03/26 12:58:50;;;;;;;10.50;2.08;;;8.70;99.90;;;;;;4926523;29;20225;-67
2023/03/26 13:01:24;;;;;;;15.10;2.35;;;8.60;99.90;;;;;;4928910;29;20407;-67
2023/03/26 13:04:21;;;;;;;16.77;2.05;;;8.60;99.90;;;;;;4925579;29;20039;-67
2023/03/26 13:06:56;;;;;;;11.13;1.83;;;8.60;99.90;;;;;;4931351;29;20039;-67
2023/03/26 13:09:55;;;;;;;12.40;1.70;;;8.60;99.90;;;;;;4929281;29;20071;-67
2023/03/26 13:12:42;;;;;;;14.15;2.10;;;8.70;99.90;;;;;;4927353;29;20484;-67
2023/03/26 13:15:22;;;;;;;9.18;1.80;;;8.80;99.90;;;;;;4926729;29;20047;-67
2023/03/26 13:18:15;;;;;;;9.05;1.95;;;8.80;99.90;;;;;;4921634;29;20127;-67
2023/03/26 13:20:53;;;;;;;12.93;2.20;;;8.90;99.90;;;;;;4927444;29;20047;-67
2023/03/26 13:23:56;;;;;;;10.43;1.80;;;8.90;99.90;;;;;;4925013;29;20439;-68
2023/03/26 13:26:56;;;;;;;8.88;1.77;;;8.90;99.90;;;;;;4916166;29;20106;-67